createdAt,value
2019-01-08T00:02:04.209Z,101279.22
2019-01-08T00:04:35.825Z,101271.87
2019-01-08T00:07:07.473Z,101270.55
2019-01-08T00:09:41.011Z,101261.45
2019-01-08T00:12:17.898Z,101254.52
2019-01-08T00:14:49.583Z,101240.66
2019-01-08T00:17:23.046Z,101235.89
2019-01-08T00:19:57.026Z,101232.00
2019-01-08T00:22:28.673Z,101225.05
2019-01-08T00:25:00.754Z,101217.28
2019-01-08T00:27:32.368Z,101201.23
2019-01-08T00:30:05.394Z,101189.14
2019-01-08T00:32:37.002Z,101191.32
2019-01-08T00:35:09.961Z,101184.39
2019-01-08T00:37:42.367Z,101195.67
2019-01-08T00:40:14.038Z,101186.59
2019-01-08T00:42:46.048Z,101183.58
2019-01-08T00:45:20.125Z,101175.36
2019-01-08T00:47:52.815Z,101174.08
2019-01-08T00:50:32.779Z,101160.65
2019-01-08T00:53:04.472Z,101163.25
2019-01-08T00:55:36.092Z,101161.94
2019-01-08T00:58:08.038Z,101155.91
2019-01-08T01:00:39.654Z,101154.15
2019-01-08T01:03:11.250Z,101143.77
2019-01-08T01:05:44.100Z,101142.88
2019-01-08T01:08:16.455Z,101138.52
2019-01-08T01:10:48.119Z,101127.30
2019-01-08T01:13:19.821Z,101125.13
2019-01-08T01:15:51.794Z,101120.34
2019-01-08T01:18:23.464Z,101109.06
2019-01-08T01:20:56.968Z,101099.10
2019-01-08T01:23:28.594Z,101088.28
2019-01-08T01:26:00.673Z,101078.31
2019-01-08T01:28:32.300Z,101069.66
2019-01-08T01:31:03.945Z,101064.42
2019-01-08T01:33:35.611Z,101045.80
2019-01-08T01:36:07.446Z,101041.88
2019-01-08T01:38:39.115Z,101034.11
2019-01-08T01:41:10.795Z,101020.72
2019-01-08T01:43:43.594Z,101034.60
2019-01-08T01:46:15.392Z,101041.53
2019-01-08T01:48:49.181Z,101029.41
2019-01-08T01:51:20.820Z,101017.71
2019-01-08T01:53:52.677Z,101019.91
2019-01-08T01:56:24.294Z,101013.84
2019-01-08T01:58:55.922Z,101015.17
2019-01-08T02:01:27.576Z,101010.37
2019-01-08T02:04:00.865Z,100998.69
2019-01-08T02:06:32.501Z,101006.95
2019-01-08T02:09:05.219Z,101013.84
2019-01-08T02:11:37.141Z,101009.08
2019-01-08T02:14:08.812Z,101024.67
2019-01-08T02:16:40.465Z,101013.01
2019-01-08T02:19:13.189Z,101010.41
2019-01-08T02:21:45.131Z,100997.82
2019-01-08T02:24:16.912Z,101003.45
2019-01-08T02:26:48.913Z,100999.13
2019-01-08T02:29:21.210Z,101010.81
2019-01-08T02:31:52.790Z,100997.83
2019-01-08T02:34:24.461Z,101000.82
2019-01-08T02:36:56.169Z,100986.10
2019-01-08T02:39:27.913Z,100987.00
2019-01-08T02:41:59.587Z,100986.13
2019-01-08T02:44:31.531Z,100974.88
2019-01-08T02:47:03.110Z,100948.92
2019-01-08T02:49:34.814Z,100949.80
2019-01-08T02:52:06.416Z,100942.87
2019-01-08T02:54:38.307Z,100947.62
2019-01-08T02:57:09.942Z,100936.80
2019-01-08T02:59:41.793Z,100941.17
2019-01-08T03:02:13.595Z,100924.72
2019-01-08T03:04:45.594Z,100926.88
2019-01-08T03:07:18.812Z,100912.20
2019-01-08T03:09:50.608Z,100903.94
2019-01-08T03:12:22.838Z,100906.10
2019-01-08T03:14:54.469Z,100893.15
2019-01-08T03:17:26.066Z,100891.85
2019-01-08T03:19:57.679Z,100901.77
2019-01-08T03:22:29.250Z,100885.32
2019-01-08T03:25:01.834Z,100884.45
2019-01-08T03:27:33.606Z,100873.16
2019-01-08T03:30:05.798Z,100861.47
2019-01-08T03:32:37.429Z,100861.47
2019-01-08T03:35:09.069Z,100858.44
2019-01-08T03:37:40.718Z,100852.38
2019-01-08T03:40:12.375Z,100853.24
2019-01-08T03:42:44.095Z,100850.22
2019-01-08T03:45:15.716Z,100860.17
2019-01-08T03:47:47.418Z,100843.72
2019-01-08T03:50:19.908Z,100843.77
2019-01-08T03:52:51.545Z,100826.45
2019-01-08T03:55:24.284Z,100832.50
2019-01-08T03:57:56.583Z,100834.23
2019-01-08T04:00:28.177Z,100828.17
2019-01-08T04:02:59.811Z,100826.02
2019-01-08T04:05:31.436Z,100807.00
2019-01-08T04:08:03.088Z,100808.31
2019-01-08T04:10:35.062Z,100804.41
2019-01-08T04:13:06.800Z,100804.45
2019-01-08T04:15:38.595Z,100804.41
2019-01-08T04:18:10.261Z,100797.05
2019-01-08T04:20:41.885Z,100791.00
2019-01-08T04:23:13.478Z,100792.33
2019-01-08T04:25:45.375Z,100777.62
2019-01-08T04:28:17.232Z,100767.23
2019-01-08T04:30:48.845Z,100773.29
2019-01-08T04:33:21.861Z,100775.02
2019-01-08T04:35:53.729Z,100768.97
2019-01-08T04:38:25.749Z,100763.34
2019-01-08T04:40:57.344Z,100771.55
2019-01-08T04:43:29.151Z,100772.42
2019-01-08T04:46:00.868Z,100771.12
2019-01-08T04:48:32.547Z,100756.80
2019-01-08T04:51:04.568Z,100755.50
2019-01-08T04:53:36.171Z,100753.77
2019-01-08T04:56:07.799Z,100752.03
2019-01-08T04:58:39.418Z,100753.77
2019-01-08T05:01:11.378Z,100754.63
2019-01-08T05:03:43.303Z,100749.00
2019-01-08T05:06:14.943Z,100741.21
2019-01-08T05:08:46.586Z,100749.44
2019-01-08T05:11:18.410Z,100733.84
2019-01-08T05:13:50.007Z,100730.81
2019-01-08T05:16:21.782Z,100741.21
2019-01-08T05:18:53.755Z,100730.39
2019-01-08T05:21:25.633Z,100729.91
2019-01-08T05:23:57.272Z,100728.17
2019-01-08T05:26:29.014Z,100720.81
2019-01-08T05:29:01.157Z,100718.22
2019-01-08T05:31:33.139Z,100723.41
2019-01-08T05:34:04.812Z,100717.35
2019-01-08T05:36:36.819Z,100713.02
2019-01-08T05:39:09.138Z,100698.73
2019-01-08T05:41:40.760Z,100685.74
2019-01-08T05:44:12.379Z,100688.73
2019-01-08T05:46:44.409Z,100673.57
2019-01-08T05:49:16.239Z,100677.91
2019-01-08T05:51:47.855Z,100667.52
2019-01-08T05:54:19.514Z,100670.98
2019-01-08T05:56:51.154Z,100666.65
2019-01-08T05:59:22.879Z,100670.54
2019-01-08T06:01:54.649Z,100664.47
2019-01-08T06:04:26.268Z,100659.66
2019-01-08T06:06:57.946Z,100654.45
2019-01-08T06:09:29.597Z,100653.98
2019-01-08T06:12:01.209Z,100647.48
2019-01-08T06:14:33.243Z,100650.45
2019-01-08T06:17:04.924Z,100649.58
2019-01-08T06:19:36.727Z,100656.06
2019-01-08T06:22:08.368Z,100656.46
2019-01-08T06:24:39.997Z,100655.59
2019-01-08T06:27:11.622Z,100657.75
2019-01-08T06:29:44.329Z,100666.41
2019-01-08T06:32:16.029Z,100666.41
2019-01-08T06:34:47.914Z,100676.80
2019-01-08T06:37:19.945Z,100676.80
2019-01-08T06:39:51.718Z,100675.49
2019-01-08T06:42:23.399Z,100668.95
2019-01-08T06:44:55.024Z,100668.08
2019-01-08T06:47:26.723Z,100668.09
2019-01-08T06:49:58.463Z,100675.45
2019-01-08T06:52:30.098Z,100688.88
2019-01-08T06:55:01.720Z,100698.01
2019-01-08T06:57:33.529Z,100698.39
2019-01-08T07:00:05.695Z,100694.00
2019-01-08T07:02:38.530Z,100676.61
2019-01-08T07:05:10.341Z,100689.55
2019-01-08T07:07:41.990Z,100670.47
2019-01-08T07:10:13.738Z,100673.88
2019-01-08T07:12:45.485Z,100667.82
2019-01-08T07:15:17.433Z,100662.19
2019-01-08T07:17:49.079Z,100666.95
2019-01-08T07:20:20.707Z,100670.84
2019-01-08T07:22:52.448Z,100673.02
2019-01-08T07:25:24.531Z,100667.38
2019-01-08T07:27:56.175Z,100670.41
2019-01-08T07:30:27.827Z,100677.34
2019-01-08T07:33:00.264Z,100675.55
2019-01-08T07:35:31.960Z,100675.98
2019-01-08T07:38:03.816Z,100666.02
2019-01-08T07:40:35.440Z,100652.09
2019-01-08T07:43:07.073Z,100665.95
2019-01-08T07:45:38.712Z,100662.03
2019-01-08T07:48:10.524Z,100664.16
2019-01-08T07:50:43.621Z,100664.14
2019-01-08T07:53:15.404Z,100659.36
2019-01-08T07:55:47.140Z,100658.81
2019-01-08T07:58:18.806Z,100660.47
2019-01-08T08:00:50.427Z,100647.39
2019-01-08T08:03:22.061Z,100651.28
2019-01-08T08:05:53.724Z,100647.80
2019-01-08T08:08:25.542Z,100647.75
2019-01-08T08:10:57.467Z,100646.00
2019-01-08T08:13:29.232Z,100640.37
2019-01-08T08:16:01.291Z,100634.73
2019-01-08T08:18:32.936Z,100629.52
2019-01-08T08:21:04.543Z,100627.80
2019-01-08T08:23:36.357Z,100622.64
2019-01-08T08:26:08.307Z,100624.38
2019-01-08T08:28:40.025Z,100624.38
2019-01-08T08:31:11.653Z,100621.37
2019-01-08T08:33:43.287Z,100624.89
2019-01-08T08:36:15.270Z,100622.73
2019-01-08T08:38:47.047Z,100630.09
2019-01-08T08:41:18.729Z,100628.80
2019-01-08T08:43:50.347Z,100637.85
2019-01-08T08:46:22.043Z,100628.75
2019-01-08T08:48:54.065Z,100628.73
2019-01-08T08:51:25.835Z,100630.89
2019-01-08T08:53:57.765Z,100626.56
2019-01-08T08:56:29.340Z,100627.84
2019-01-08T08:59:00.984Z,100634.73
2019-01-08T09:01:32.730Z,100630.84
2019-01-08T09:04:04.334Z,100632.11
2019-01-08T09:06:35.975Z,100629.45
2019-01-08T09:09:08.449Z,100623.36
2019-01-08T09:11:40.211Z,100625.03
2019-01-08T09:14:17.059Z,100626.70
2019-01-08T09:16:48.721Z,100630.13
2019-01-08T09:19:20.676Z,100632.72
2019-01-08T09:21:52.337Z,100627.89
2019-01-08T09:24:25.161Z,100626.09
2019-01-08T09:26:57.387Z,100626.44
2019-01-08T09:29:29.027Z,100624.22
2019-01-08T09:32:00.646Z,100623.72
2019-01-08T09:34:32.263Z,100617.14
2019-01-08T09:37:03.948Z,100619.30
2019-01-08T09:39:36.225Z,100626.61
2019-01-08T09:42:08.099Z,100626.58
2019-01-08T09:44:39.814Z,100629.16
2019-01-08T09:47:19.101Z,100622.17
2019-01-08T09:49:50.705Z,100624.79
2019-01-08T09:52:22.325Z,100624.77
2019-01-08T09:54:54.013Z,100628.68
2019-01-08T09:57:26.218Z,100636.54
2019-01-08T09:59:57.848Z,100630.06
2019-01-08T10:02:29.500Z,100623.13
2019-01-08T10:05:01.115Z,100616.17
2019-01-08T10:07:32.937Z,100610.89
2019-01-08T10:10:04.582Z,100596.99
2019-01-08T10:12:38.021Z,100588.16
2019-01-08T10:15:09.690Z,100578.52
2019-01-08T10:17:41.342Z,100571.90
2019-01-08T10:20:13.292Z,100563.52
2019-01-08T10:22:44.907Z,100561.58
2019-01-08T10:25:16.594Z,100567.04
2019-01-08T10:27:48.912Z,100566.80
2019-01-08T10:30:20.563Z,100570.43
2019-01-08T10:32:52.295Z,100560.53
2019-01-08T10:35:25.284Z,100562.41
2019-01-08T10:37:57.350Z,100556.43
2019-01-08T10:40:29.017Z,100548.27
2019-01-08T10:43:00.917Z,100547.62
2019-01-08T10:45:34.467Z,100553.09
2019-01-08T10:48:06.224Z,100543.45
2019-01-08T10:50:39.177Z,100540.34
2019-01-08T10:53:12.187Z,100526.75
2019-01-08T10:55:43.851Z,100516.28
2019-01-08T10:58:15.478Z,100523.19
2019-01-08T11:00:47.210Z,100515.72
2019-01-08T11:03:18.848Z,100519.19
2019-01-08T11:05:50.491Z,100521.67
2019-01-08T11:08:22.110Z,100520.34
2019-01-08T11:10:53.786Z,100511.11
2019-01-08T11:13:25.477Z,100511.08
2019-01-08T11:15:57.258Z,100503.21
2019-01-08T11:18:28.954Z,100497.00
2019-01-08T11:21:00.710Z,100496.88
2019-01-08T11:23:32.426Z,100508.98
2019-01-08T11:26:04.127Z,100503.72
2019-01-08T11:28:36.435Z,100500.64
2019-01-08T11:31:08.222Z,100493.15
2019-01-08T11:33:40.900Z,100489.61
2019-01-08T11:36:12.614Z,100486.14
2019-01-08T11:38:44.350Z,100490.98
2019-01-08T11:41:16.448Z,100479.30
2019-01-08T11:43:50.731Z,100466.72
2019-01-08T11:46:21.507Z,100475.45
2019-01-08T11:48:53.131Z,100474.14
2019-01-08T11:51:24.966Z,100458.05
2019-01-08T11:53:56.589Z,100468.06
2019-01-08T11:56:29.940Z,100467.06
2019-01-08T11:59:01.732Z,100462.19
2019-01-08T12:01:33.520Z,100452.09
2019-01-08T12:04:06.754Z,100451.20
2019-01-08T12:06:38.378Z,100459.76
2019-01-08T12:09:11.877Z,100462.23
2019-01-08T12:11:44.602Z,100465.13
2019-01-08T12:14:18.095Z,100455.09
2019-01-08T12:16:50.024Z,100461.63
2019-01-08T12:19:21.698Z,100460.73
2019-01-08T12:21:53.596Z,100460.73
2019-01-08T12:24:25.263Z,100458.63
2019-01-08T12:26:57.523Z,100465.74
2019-01-08T12:29:29.255Z,100452.05
2019-01-08T12:32:06.413Z,100454.77
2019-01-08T12:34:34.865Z,100440.06
2019-01-08T12:37:06.518Z,100433.59
2019-01-08T12:39:38.191Z,100424.45
2019-01-08T12:42:11.690Z,100425.76
2019-01-08T12:44:44.455Z,100423.15
2019-01-08T12:47:16.564Z,100418.82
2019-01-08T12:49:48.323Z,100412.36
2019-01-08T12:52:20.036Z,100403.25
2019-01-08T12:54:51.722Z,100405.48
2019-01-08T12:57:24.638Z,100402.02
2019-01-08T12:59:56.311Z,100398.61
2019-01-08T13:02:28.021Z,100405.59
2019-01-08T13:04:59.974Z,100398.61
2019-01-08T13:07:31.667Z,100401.60
2019-01-08T13:10:03.380Z,100395.94
2019-01-08T13:12:35.113Z,100395.45
2019-01-08T13:15:07.124Z,100394.11
2019-01-08T13:17:38.845Z,100388.82
2019-01-08T13:20:10.728Z,100391.43
2019-01-08T13:22:42.562Z,100392.33
2019-01-08T13:25:14.231Z,100394.08
2019-01-08T13:27:47.396Z,100392.36
2019-01-08T13:30:19.098Z,100388.89
2019-01-08T13:32:50.795Z,100387.17
2019-01-08T13:35:22.727Z,100388.06
2019-01-08T13:37:54.371Z,100389.47
2019-01-08T13:40:26.080Z,100382.50
2019-01-08T13:43:00.683Z,100391.64
2019-01-08T13:45:32.410Z,100385.48
2019-01-08T13:48:04.055Z,100391.56
2019-01-08T13:50:35.829Z,100384.18
2019-01-08T13:53:08.575Z,100377.72
2019-01-08T13:55:40.239Z,100387.30
2019-01-08T13:58:12.232Z,100390.81
2019-01-08T14:00:43.910Z,100393.48
2019-01-08T14:03:15.688Z,100390.13
2019-01-08T14:05:47.436Z,100395.03
2019-01-08T14:08:20.373Z,100392.45
2019-01-08T14:10:56.456Z,100382.52
2019-01-08T14:13:25.610Z,100372.52
2019-01-08T14:15:57.410Z,100385.16
2019-01-08T14:18:29.060Z,100376.92
2019-01-08T14:21:00.739Z,100396.15
2019-01-08T14:23:32.663Z,100400.51
2019-01-08T14:26:05.437Z,100404.94
2019-01-08T14:28:37.445Z,100407.16
2019-01-08T14:31:09.137Z,100403.31
2019-01-08T14:33:40.859Z,100407.67
2019-01-08T14:36:14.261Z,100393.39
2019-01-08T14:38:47.729Z,100394.28
2019-01-08T14:41:19.501Z,100385.63
2019-01-08T14:43:53.955Z,100389.56
2019-01-08T14:46:25.590Z,100387.47
2019-01-08T14:48:57.325Z,100380.53
2019-01-08T14:51:29.077Z,100375.34
2019-01-08T14:54:00.940Z,100374.90
2019-01-08T14:56:32.609Z,100382.31
2019-01-08T14:59:04.317Z,100367.95
2019-01-08T15:01:36.007Z,100365.41
2019-01-08T15:04:07.736Z,100367.58
2019-01-08T15:06:39.449Z,100351.92
2019-01-08T15:09:11.238Z,100356.34
2019-01-08T15:11:42.957Z,100350.33
2019-01-08T15:14:15.624Z,100349.47
2019-01-08T15:16:50.251Z,100349.92
2019-01-08T15:19:22.116Z,100358.16
2019-01-08T15:21:54.164Z,100366.44
2019-01-08T15:24:27.109Z,100363.86
2019-01-08T15:27:00.617Z,100361.73
2019-01-08T15:29:51.452Z,100360.86
2019-01-08T15:32:23.793Z,100376.14
2019-01-08T15:34:55.558Z,100379.61
2019-01-08T15:37:27.276Z,100382.69
2019-01-08T15:39:58.992Z,100380.11
2019-01-08T15:42:30.692Z,100388.83
2019-01-08T15:45:02.595Z,100387.52
2019-01-08T15:47:37.828Z,100392.30
2019-01-08T15:50:10.021Z,100392.27
2019-01-08T15:52:42.148Z,100385.30
2019-01-08T15:55:13.885Z,100384.34
2019-01-08T15:57:45.821Z,100384.41
2019-01-08T16:00:18.679Z,100390.93
2019-01-08T16:02:50.417Z,100387.88
2019-01-08T16:05:22.229Z,100396.15
2019-01-08T16:07:54.013Z,100400.50
2019-01-08T16:10:25.701Z,100397.52
2019-01-08T16:12:57.504Z,100397.16
2019-01-08T16:15:29.226Z,100382.94
2019-01-08T16:18:00.938Z,100374.38
2019-01-08T16:20:33.861Z,100377.94
2019-01-08T16:23:05.742Z,100380.63
2019-01-08T16:25:37.617Z,100380.73
2019-01-08T16:28:09.387Z,100381.17
2019-01-08T16:30:42.728Z,100382.09
2019-01-08T16:33:16.088Z,100395.16
2019-01-08T16:35:48.041Z,100386.51
2019-01-08T16:38:20.556Z,100388.76
2019-01-08T16:40:52.423Z,100390.15
2019-01-08T16:43:24.219Z,100393.23
2019-01-08T16:45:55.934Z,100389.37
2019-01-08T16:48:27.710Z,100386.83
2019-01-08T16:50:59.424Z,100390.32
2019-01-08T16:53:31.112Z,100380.31
2019-01-08T16:56:03.096Z,100390.74
2019-01-08T16:58:34.999Z,100388.55
2019-01-08T17:01:06.852Z,100391.62
2019-01-08T17:03:38.595Z,100407.71
2019-01-08T17:06:10.309Z,100397.28
2019-01-08T17:08:42.021Z,100394.67
2019-01-08T17:11:13.720Z,100392.48
2019-01-08T17:13:45.648Z,100396.40
2019-01-08T17:16:18.843Z,100396.45
2019-01-08T17:18:52.068Z,100391.27
2019-01-08T17:21:24.091Z,100398.67
2019-01-08T17:23:55.872Z,100391.80
2019-01-08T17:26:27.579Z,100384.48
2019-01-08T17:29:00.840Z,100382.41
2019-01-08T17:31:32.529Z,100390.78
2019-01-08T17:34:04.250Z,100386.56
2019-01-08T17:36:36.201Z,100395.36
2019-01-08T17:39:09.256Z,100396.27
2019-01-08T17:41:41.019Z,100395.91
2019-01-08T17:44:12.868Z,100393.77
2019-01-08T17:46:44.574Z,100392.55
2019-01-08T17:49:16.283Z,100385.67
2019-01-08T17:51:48.165Z,100380.99
2019-01-08T17:54:19.865Z,100380.69
2019-01-08T17:56:52.001Z,100388.14
2019-01-08T17:59:24.942Z,100391.23
2019-01-08T18:02:03.054Z,100382.64
2019-01-08T18:04:34.826Z,100390.98
2019-01-08T18:07:06.539Z,100384.09
2019-01-08T18:09:38.350Z,100388.50
2019-01-08T18:12:10.071Z,100395.03
2019-01-08T18:14:41.805Z,100392.45
2019-01-08T18:17:13.648Z,100392.43
2019-01-08T18:19:45.577Z,100401.96
2019-01-08T18:22:17.337Z,100393.73
2019-01-08T18:24:49.030Z,100401.55
2019-01-08T18:27:21.260Z,100394.61
2019-01-08T18:29:57.901Z,100394.17
2019-01-08T18:32:29.728Z,100409.81
2019-01-08T18:35:01.791Z,100403.36
2019-01-08T18:37:33.629Z,100407.22
2019-01-08T18:40:06.292Z,100405.89
2019-01-08T18:42:38.601Z,100411.86
2019-01-08T18:45:11.082Z,100408.77
2019-01-08T18:47:43.789Z,100409.55
2019-01-08T18:50:15.542Z,100405.61
2019-01-08T18:52:47.387Z,100411.62
2019-01-08T18:55:19.336Z,100421.14
2019-01-08T18:57:51.177Z,100431.11
2019-01-08T19:00:22.965Z,100432.34
2019-01-08T19:02:54.960Z,100437.94
2019-01-08T19:05:28.349Z,100436.16
2019-01-08T19:08:00.190Z,100424.92
2019-01-08T19:10:32.055Z,100430.06
2019-01-08T19:13:03.879Z,100432.65
2019-01-08T19:15:41.024Z,100433.92
2019-01-08T19:18:14.823Z,100436.53
2019-01-08T19:20:46.935Z,100438.28
2019-01-08T19:23:18.622Z,100431.79
2019-01-08T19:25:50.395Z,100442.21
2019-01-08T19:28:22.516Z,100441.34
2019-01-08T19:30:55.537Z,100444.81
2019-01-08T19:33:27.388Z,100434.81
2019-01-08T19:35:59.494Z,100442.60
2019-01-08T19:38:31.238Z,100438.61
2019-01-08T19:41:03.164Z,100439.45
2019-01-08T19:43:36.893Z,100439.45
2019-01-08T19:46:08.793Z,100435.55
2019-01-08T19:48:40.571Z,100429.89
2019-01-08T19:51:12.514Z,100434.24
2019-01-08T19:53:44.331Z,100435.10
2019-01-08T19:56:18.059Z,100428.11
2019-01-08T19:58:49.845Z,100434.16
2019-01-08T20:01:21.572Z,100434.13
2019-01-08T20:03:53.404Z,100431.11
2019-01-08T20:06:25.421Z,100431.11
2019-01-08T20:08:57.334Z,100422.90
2019-01-08T20:11:29.154Z,100417.75
2019-01-08T20:14:00.921Z,100411.67
2019-01-08T20:16:34.277Z,100413.03
2019-01-08T20:19:06.349Z,100410.92
2019-01-08T20:21:38.213Z,100397.09
2019-01-08T20:24:10.038Z,100407.15
2019-01-08T20:26:41.790Z,100408.55
2019-01-08T20:29:13.964Z,100404.31
2019-01-08T20:31:45.755Z,100407.83
2019-01-08T20:34:26.230Z,100403.08
2019-01-08T20:36:52.263Z,100409.20
2019-01-08T20:39:25.375Z,100414.00
2019-01-08T20:41:57.105Z,100421.78
2019-01-08T20:44:29.084Z,100417.80
2019-01-08T20:47:00.917Z,100417.72
2019-01-08T20:49:32.699Z,100414.23
2019-01-08T20:52:05.445Z,100405.55
2019-01-08T20:54:37.297Z,100402.95
2019-01-08T20:57:09.530Z,100403.81
2019-01-08T20:59:41.315Z,100397.74
2019-01-08T21:02:13.055Z,100397.30
2019-01-08T21:04:44.988Z,100392.53
2019-01-08T21:07:18.005Z,100393.84
2019-01-08T21:09:49.980Z,100394.70
2019-01-08T21:12:21.688Z,100387.33
2019-01-08T21:14:53.624Z,100387.33
2019-01-08T21:17:25.388Z,100379.48
2019-01-08T21:20:02.273Z,100385.53
2019-01-08T21:22:34.132Z,100395.03
2019-01-08T21:25:06.068Z,100388.58
2019-01-08T21:27:38.788Z,100389.00
2019-01-08T21:30:10.980Z,100385.48
2019-01-08T21:32:42.644Z,100385.89
2019-01-08T21:35:14.434Z,100390.22
2019-01-08T21:37:46.242Z,100380.23
2019-01-08T21:40:19.180Z,100381.12
2019-01-08T21:42:53.456Z,100383.78
2019-01-08T21:45:25.313Z,100375.56
2019-01-08T21:47:57.744Z,100369.95
2019-01-08T21:50:32.720Z,100361.36
2019-01-08T21:53:04.500Z,100381.00
2019-01-08T21:55:36.196Z,100379.83
2019-01-08T21:58:07.855Z,100388.61
2019-01-08T22:00:40.015Z,100385.24
2019-01-08T22:03:11.661Z,100390.05
2019-01-08T22:05:45.044Z,100382.75
2019-01-08T22:08:16.710Z,100385.02
2019-01-08T22:10:49.106Z,100380.77
2019-01-08T22:13:23.061Z,100375.17
2019-01-08T22:15:55.034Z,100360.07
2019-01-08T22:18:28.157Z,100371.83
2019-01-08T22:21:00.071Z,100368.86
2019-01-08T22:23:32.364Z,100362.39
2019-01-08T22:26:04.508Z,100358.97
2019-01-08T22:28:40.676Z,100360.62
2019-01-08T22:31:14.279Z,100358.47
2019-01-08T22:33:47.199Z,100363.31
2019-01-08T22:36:19.147Z,100357.28
2019-01-08T22:38:50.923Z,100359.52
2019-01-08T22:41:24.639Z,100354.36
2019-01-08T22:43:57.344Z,100361.73
2019-01-08T22:46:29.168Z,100357.83
2019-01-08T22:49:00.987Z,100348.63
2019-01-08T22:51:32.699Z,100340.38
2019-01-08T22:54:04.962Z,100330.41
2019-01-08T22:56:37.691Z,100331.71
2019-01-08T22:59:09.434Z,100331.69
2019-01-08T23:01:43.640Z,100322.12
2019-01-08T23:04:15.633Z,100331.64
2019-01-08T23:06:47.419Z,100329.05
2019-01-08T23:09:19.094Z,100306.50
2019-01-08T23:11:52.259Z,100302.63
2019-01-08T23:14:28.540Z,100309.15
2019-01-08T23:17:01.329Z,100307.09
2019-01-08T23:19:36.997Z,100304.15
2019-01-08T23:22:08.961Z,100299.91
2019-01-08T23:24:40.837Z,100285.30
2019-01-08T23:27:12.577Z,100298.84
2019-01-08T23:29:44.960Z,100295.48
2019-01-08T23:32:17.201Z,100300.76
2019-01-08T23:34:48.925Z,100305.56
2019-01-08T23:37:20.682Z,100309.55
2019-01-08T23:39:52.309Z,100307.89
2019-01-08T23:42:24.525Z,100310.09
2019-01-08T23:44:56.512Z,100312.32
2019-01-08T23:47:28.092Z,100317.54
2019-01-08T23:49:59.789Z,100321.02
2019-01-08T23:53:17.959Z,100322.76
2019-01-08T23:55:51.543Z,100324.92
2019-01-08T23:58:23.163Z,100318.00
